Terminal Aerodrome Forecast
Issued by NWS

Home | Current Version | Previous Version | Text Only | Print | Product List | Glossary On
Versions: 1 2 3 4 5 6 7 8 9 10 11 12 13 14 15 16 17 18 19
000
FTUS42 KGSP 061735
TAFAND
TAF
KAND 061735Z 0618/0718 23008KT P6SM SCT040 SCT210
     FM062000 23006KT P6SM VCTS BKN045CB
     FM062200 24005KT P6SM SCT045
     FM062300 24004KT P6SM FEW250=

USA.gov is the U.S. government's official web portal to all federal, state and local government web resources and services.